createdAt,value
2023-05-14T00:01:12.273Z,11.30
2023-05-14T00:03:41.110Z,10.80
2023-05-14T00:06:11.210Z,10.30
2023-05-14T00:08:38.085Z,10.40
2023-05-14T00:11:05.051Z,8.90
2023-05-14T00:13:32.388Z,8.80
2023-05-14T00:15:59.305Z,8.80
2023-05-14T00:18:26.212Z,9.60
2023-05-14T00:20:54.976Z,10.00
2023-05-14T00:23:22.705Z,9.30
2023-05-14T00:25:50.037Z,12.00
2023-05-14T00:28:16.941Z,8.90
2023-05-14T00:30:44.170Z,8.90
2023-05-14T00:33:11.264Z,8.90
2023-05-14T00:35:38.282Z,10.00
2023-05-14T00:38:06.170Z,9.00
2023-05-14T00:40:33.096Z,11.20
2023-05-14T00:43:01.579Z,9.30
2023-05-14T00:45:28.701Z,9.80
2023-05-14T00:47:55.679Z,10.80
2023-05-14T00:50:22.926Z,10.80
2023-05-14T00:52:50.025Z,9.10
2023-05-14T00:55:16.973Z,10.90
2023-05-14T00:57:44.162Z,9.00
2023-05-14T01:00:11.517Z,9.70
2023-05-14T01:02:38.554Z,9.00
2023-05-14T01:05:05.759Z,8.90
2023-05-14T01:07:36.180Z,8.90
2023-05-14T01:10:14.342Z,10.60
2023-05-14T01:13:01.531Z,8.90
2023-05-14T01:15:32.346Z,11.20
2023-05-14T01:18:14.061Z,9.20
2023-05-14T01:20:40.880Z,8.90
2023-05-14T01:23:08.230Z,11.50
2023-05-14T01:25:35.493Z,10.30
2023-05-14T01:28:11.824Z,11.10
2023-05-14T01:30:43.575Z,10.40
2023-05-14T01:33:11.534Z,8.90
2023-05-14T01:35:38.631Z,11.30
2023-05-14T01:38:07.481Z,8.90
2023-05-14T01:40:34.653Z,8.90
2023-05-14T01:43:01.712Z,8.90
2023-05-14T01:45:28.724Z,9.10
2023-05-14T01:47:55.817Z,9.50
2023-05-14T01:50:22.972Z,9.20
2023-05-14T01:52:51.524Z,9.00
2023-05-14T01:55:18.534Z,11.40
2023-05-14T01:57:45.455Z,8.90
2023-05-14T02:00:12.804Z,12.00
2023-05-14T02:02:42.519Z,9.00
2023-05-14T02:05:12.061Z,9.60
2023-05-14T02:07:38.947Z,11.40
2023-05-14T02:10:06.439Z,10.70
2023-05-14T02:12:33.392Z,9.00
2023-05-14T02:15:00.445Z,11.80
2023-05-14T02:17:28.102Z,12.10
2023-05-14T02:19:54.935Z,10.50
2023-05-14T02:22:21.884Z,9.70
2023-05-14T02:24:49.774Z,11.10
2023-05-14T02:27:18.067Z,9.70
2023-05-14T02:29:45.040Z,9.30
2023-05-14T02:32:12.016Z,10.10
2023-05-14T02:34:39.492Z,11.40
2023-05-14T02:37:06.573Z,11.10
2023-05-14T02:39:33.378Z,9.30
2023-05-14T02:42:00.308Z,12.20
2023-05-14T02:44:27.172Z,10.80
2023-05-14T02:46:54.084Z,11.80
2023-05-14T02:49:21.081Z,9.90
2023-05-14T02:51:47.923Z,12.20
2023-05-14T02:54:16.545Z,10.70
2023-05-14T02:56:43.565Z,9.30
2023-05-14T02:59:10.671Z,10.90
2023-05-14T03:01:38.267Z,11.70
2023-05-14T03:04:05.791Z,10.90
2023-05-14T03:06:32.647Z,9.30
2023-05-14T03:08:59.551Z,9.30
2023-05-14T03:11:26.380Z,11.60
2023-05-14T03:13:53.278Z,11.70
2023-05-14T03:16:20.488Z,9.30
2023-05-14T03:18:47.547Z,11.50
2023-05-14T03:21:14.442Z,9.30
2023-05-14T03:23:41.300Z,9.30
2023-05-14T03:26:08.452Z,9.30
2023-05-14T03:28:35.533Z,9.30
2023-05-14T03:31:02.509Z,11.00
2023-05-14T03:33:31.170Z,10.70
2023-05-14T03:35:58.019Z,10.80
2023-05-14T03:38:24.891Z,10.20
2023-05-14T03:40:51.911Z,11.80
2023-05-14T03:43:19.052Z,11.00
2023-05-14T03:45:46.310Z,12.30
2023-05-14T03:48:13.517Z,9.40
2023-05-14T03:50:40.647Z,10.10
2023-05-14T03:53:08.563Z,9.40
2023-05-14T03:55:36.717Z,9.70
2023-05-14T03:58:03.523Z,9.70
2023-05-14T04:00:30.390Z,11.30
2023-05-14T04:02:57.313Z,12.10
2023-05-14T04:05:24.666Z,10.70
2023-05-14T04:07:52.592Z,9.80
2023-05-14T04:10:20.516Z,9.70
2023-05-14T04:12:47.709Z,11.60
2023-05-14T04:15:14.600Z,9.40
2023-05-14T04:17:42.917Z,9.30
2023-05-14T04:20:10.402Z,10.80
2023-05-14T04:22:37.793Z,9.40
2023-05-14T04:25:05.038Z,10.80
2023-05-14T04:27:33.231Z,9.40
2023-05-14T04:30:00.205Z,12.40
2023-05-14T04:32:27.209Z,9.40
2023-05-14T04:34:54.068Z,11.60
2023-05-14T04:37:21.073Z,12.40
2023-05-14T04:39:48.185Z,9.40
2023-05-14T04:42:15.170Z,10.60
2023-05-14T04:44:42.031Z,10.10
2023-05-14T04:47:08.864Z,9.50
2023-05-14T04:49:35.868Z,12.00
2023-05-14T04:52:02.730Z,11.60
2023-05-14T04:54:29.997Z,11.10
2023-05-14T04:56:57.280Z,11.20
2023-05-14T04:59:24.511Z,10.20
2023-05-14T05:01:51.765Z,10.30
2023-05-14T05:04:18.991Z,11.60
2023-05-14T05:06:45.792Z,11.50
2023-05-14T05:09:13.132Z,10.80
2023-05-14T05:11:40.083Z,11.70
2023-05-14T05:14:07.450Z,12.10
2023-05-14T05:16:34.840Z,9.80
2023-05-14T05:19:02.017Z,12.20
2023-05-14T05:21:28.885Z,12.50
2023-05-14T05:23:58.004Z,10.90
2023-05-14T05:26:26.873Z,10.10
2023-05-14T05:28:53.859Z,12.60
2023-05-14T05:31:20.746Z,10.10
2023-05-14T05:33:47.948Z,10.10
2023-05-14T05:36:14.913Z,10.30
2023-05-14T05:38:43.152Z,10.70
2023-05-14T05:41:10.623Z,12.80
2023-05-14T05:43:37.485Z,12.20
2023-05-14T05:46:04.455Z,11.10
2023-05-14T05:48:31.388Z,12.20
2023-05-14T05:50:58.608Z,13.30
2023-05-14T05:53:26.291Z,10.80
2023-05-14T05:55:53.773Z,10.90
2023-05-14T05:58:21.324Z,11.60
2023-05-14T06:00:56.019Z,11.70
2023-05-14T06:03:32.438Z,11.10
2023-05-14T06:06:03.527Z,11.20
2023-05-14T06:08:30.932Z,13.80
2023-05-14T06:10:58.996Z,11.20
2023-05-14T06:13:25.957Z,11.20
2023-05-14T06:15:52.951Z,13.70
2023-05-14T06:18:19.891Z,14.10
2023-05-14T06:20:47.375Z,11.30
2023-05-14T06:23:15.310Z,11.30
2023-05-14T06:25:42.443Z,11.30
2023-05-14T06:28:09.503Z,12.20
2023-05-14T06:30:37.135Z,14.00
2023-05-14T06:33:04.660Z,11.70
2023-05-14T06:35:33.331Z,13.90
2023-05-14T06:38:00.788Z,11.80
2023-05-14T06:40:28.023Z,11.90
2023-05-14T06:42:55.210Z,13.50
2023-05-14T06:45:23.311Z,11.70
2023-05-14T06:47:51.373Z,13.30
2023-05-14T06:50:18.579Z,11.90
2023-05-14T06:52:45.770Z,12.00
2023-05-14T06:55:14.229Z,12.10
2023-05-14T06:57:41.783Z,12.20
2023-05-14T07:00:09.918Z,13.50
2023-05-14T07:02:37.154Z,12.30
2023-05-14T07:05:05.780Z,14.30
2023-05-14T07:07:33.859Z,12.40
2023-05-14T07:10:02.535Z,15.20
2023-05-14T07:12:30.901Z,14.70
2023-05-14T07:14:58.356Z,15.10
2023-05-14T07:17:26.448Z,12.60
2023-05-14T07:19:56.566Z,12.70
2023-05-14T07:22:23.890Z,12.70
2023-05-14T07:24:52.300Z,12.70
2023-05-14T07:27:20.589Z,12.90
2023-05-14T07:29:48.110Z,13.20
2023-05-14T07:32:16.471Z,13.00
2023-05-14T07:34:46.025Z,14.20
2023-05-14T07:37:13.566Z,13.20
2023-05-14T07:39:42.858Z,15.40
2023-05-14T07:42:19.395Z,13.30
2023-05-14T07:44:52.072Z,13.60
2023-05-14T07:47:19.502Z,13.40
2023-05-14T07:49:46.386Z,13.30
2023-05-14T07:52:13.246Z,13.90
2023-05-14T07:54:40.060Z,13.30
2023-05-14T07:57:07.603Z,13.30
2023-05-14T07:59:34.558Z,13.30
2023-05-14T08:02:01.709Z,15.80
2023-05-14T08:04:28.928Z,13.30
2023-05-14T08:06:58.206Z,13.70
2023-05-14T08:09:24.981Z,13.30
2023-05-14T08:11:51.907Z,15.30
2023-05-14T08:14:18.758Z,15.70
2023-05-14T08:16:45.671Z,13.20
2023-05-14T08:19:13.084Z,13.30
2023-05-14T08:21:39.949Z,13.20
2023-05-14T08:24:06.960Z,13.30
2023-05-14T08:26:33.829Z,13.20
2023-05-14T08:29:00.870Z,13.30
2023-05-14T08:31:28.267Z,15.60
2023-05-14T08:33:55.848Z,15.00
2023-05-14T08:36:22.685Z,13.30
2023-05-14T08:38:50.561Z,14.40
2023-05-14T08:41:17.434Z,13.50
2023-05-14T08:44:06.776Z,13.50
2023-05-14T08:46:34.169Z,13.60
2023-05-14T08:49:20.926Z,13.80
2023-05-14T08:51:48.595Z,13.80
2023-05-14T08:54:18.729Z,13.90
2023-05-14T08:56:51.162Z,15.60
2023-05-14T08:59:18.957Z,14.30
2023-05-14T09:01:49.195Z,16.10
2023-05-14T09:04:17.625Z,14.50
2023-05-14T09:06:44.953Z,14.50
2023-05-14T09:09:13.175Z,14.50
2023-05-14T09:11:45.920Z,14.80
2023-05-14T09:14:12.780Z,13.30
2023-05-14T09:16:44.394Z,14.60
2023-05-14T09:19:14.091Z,14.80
2023-05-14T09:21:41.779Z,15.80
2023-05-14T09:24:08.845Z,15.10
2023-05-14T09:26:35.753Z,15.60
2023-05-14T09:29:02.786Z,15.50
2023-05-14T09:31:30.648Z,15.40
2023-05-14T09:33:57.778Z,15.40
2023-05-14T09:36:25.190Z,15.40
2023-05-14T09:38:52.119Z,15.40
2023-05-14T09:41:19.589Z,15.40
2023-05-14T09:43:46.580Z,15.30
2023-05-14T09:46:13.402Z,15.20
2023-05-14T09:48:40.353Z,15.20
2023-05-14T09:51:07.336Z,16.20
2023-05-14T09:53:35.614Z,15.20
2023-05-14T09:56:02.504Z,15.30
2023-05-14T09:58:29.798Z,15.30
2023-05-14T10:00:57.373Z,15.30
2023-05-14T10:03:26.011Z,15.30
2023-05-14T10:05:53.485Z,15.30
2023-05-14T10:08:24.362Z,15.30
2023-05-14T10:10:51.870Z,15.20
2023-05-14T10:13:21.190Z,15.20
2023-05-14T10:16:14.949Z,15.70
2023-05-14T10:18:43.649Z,15.20
2023-05-14T10:21:10.616Z,15.10
2023-05-14T10:23:38.016Z,15.00
2023-05-14T10:26:05.007Z,14.90
2023-05-14T10:28:32.261Z,14.90
2023-05-14T10:31:00.600Z,14.90
2023-05-14T10:33:27.742Z,14.80
2023-05-14T10:36:04.480Z,14.80
2023-05-14T10:38:37.703Z,17.10
2023-05-14T10:41:12.923Z,15.00
2023-05-14T10:43:40.658Z,15.10
2023-05-14T10:46:08.361Z,15.30
2023-05-14T10:48:35.368Z,15.30
2023-05-14T10:51:02.890Z,15.30
2023-05-14T10:53:37.575Z,15.30
2023-05-14T10:56:09.109Z,15.50
2023-05-14T10:58:40.200Z,15.50
2023-05-14T11:01:07.532Z,15.60
2023-05-14T11:03:40.006Z,17.00
2023-05-14T11:06:07.553Z,16.20
2023-05-14T11:08:34.471Z,15.90
2023-05-14T11:11:01.393Z,15.90
2023-05-14T11:13:28.250Z,16.10
2023-05-14T11:15:55.914Z,18.20
2023-05-14T11:18:29.868Z,16.30
2023-05-14T11:21:03.045Z,16.20
2023-05-14T11:23:29.938Z,16.20
2023-05-14T11:25:56.926Z,16.30
2023-05-14T11:28:24.188Z,16.20
2023-05-14T11:30:51.249Z,16.90
2023-05-14T11:33:18.403Z,16.10
2023-05-14T11:35:46.593Z,16.10
2023-05-14T11:38:20.267Z,16.00
2023-05-14T11:40:57.576Z,16.70
2023-05-14T11:43:24.916Z,18.20
2023-05-14T11:45:55.093Z,16.30
2023-05-14T11:48:30.007Z,16.40
2023-05-14T11:51:00.060Z,16.50
2023-05-14T11:53:29.995Z,16.60
2023-05-14T11:55:59.432Z,16.80
2023-05-14T11:58:26.579Z,17.80
2023-05-14T12:00:53.566Z,17.00
2023-05-14T12:03:26.396Z,16.90
2023-05-14T12:05:58.623Z,16.80
2023-05-14T12:08:33.252Z,16.90
2023-05-14T12:11:00.706Z,16.70
2023-05-14T12:13:28.437Z,16.70
2023-05-14T12:15:57.097Z,16.50
2023-05-14T12:18:31.908Z,16.50
2023-05-14T12:21:06.199Z,16.60
2023-05-14T12:23:34.273Z,16.60
2023-05-14T12:26:06.485Z,16.70
2023-05-14T12:28:36.058Z,16.80
2023-05-14T12:31:04.814Z,16.80
2023-05-14T12:33:31.712Z,17.00
2023-05-14T12:36:07.427Z,17.00
2023-05-14T12:38:47.300Z,17.00
2023-05-14T12:41:14.143Z,17.10
2023-05-14T12:43:44.051Z,17.10
2023-05-14T12:46:23.884Z,17.20
2023-05-14T12:48:53.059Z,17.20
2023-05-14T12:51:20.197Z,17.30
2023-05-14T12:53:47.166Z,17.40
2023-05-14T12:56:14.160Z,17.60
2023-05-14T12:58:41.327Z,17.80
2023-05-14T13:01:10.834Z,17.80
2023-05-14T13:03:37.719Z,17.80
2023-05-14T13:06:04.722Z,17.70
2023-05-14T13:08:39.409Z,17.80
2023-05-14T13:11:08.392Z,17.90
2023-05-14T13:13:35.791Z,17.80
2023-05-14T13:16:03.839Z,17.90
2023-05-14T13:18:30.724Z,17.80
2023-05-14T13:20:58.338Z,17.80
2023-05-14T13:23:25.236Z,17.80
2023-05-14T13:25:52.160Z,17.80
2023-05-14T13:28:18.932Z,17.80
2023-05-14T13:31:09.950Z,17.90
2023-05-14T13:33:38.593Z,17.80
2023-05-14T13:36:06.099Z,17.70
2023-05-14T13:38:33.590Z,17.90
2023-05-14T13:41:03.442Z,18.10
2023-05-14T13:43:31.155Z,18.20
2023-05-14T13:45:58.534Z,18.30
2023-05-14T13:48:25.821Z,18.30
2023-05-14T13:50:52.890Z,18.40
2023-05-14T13:53:20.550Z,18.40
2023-05-14T13:55:49.152Z,18.50
2023-05-14T13:58:16.561Z,18.50
2023-05-14T14:00:43.444Z,18.90
2023-05-14T14:03:10.418Z,19.30
2023-05-14T14:05:37.487Z,19.60
2023-05-14T14:08:22.093Z,19.80
2023-05-14T14:10:50.699Z,19.70
2023-05-14T14:13:17.889Z,19.70
2023-05-14T14:15:44.893Z,19.70
2023-05-14T14:18:20.792Z,19.50
2023-05-14T14:20:49.711Z,19.30
2023-05-14T14:23:17.080Z,19.10
2023-05-14T14:25:43.950Z,18.80
2023-05-14T14:28:11.316Z,18.60
2023-05-14T14:30:38.245Z,18.40
2023-05-14T14:33:05.287Z,18.30
2023-05-14T14:35:33.613Z,18.30
2023-05-14T14:38:00.495Z,18.10
2023-05-14T14:40:27.982Z,17.90
2023-05-14T14:42:57.485Z,17.80
2023-05-14T14:45:24.889Z,17.70
2023-05-14T14:47:51.957Z,17.50
2023-05-14T14:50:27.974Z,17.40
2023-05-14T14:52:59.994Z,17.40
2023-05-14T14:55:28.425Z,17.40
2023-05-14T14:57:56.255Z,17.40
2023-05-14T15:00:23.999Z,17.40
2023-05-14T15:02:51.380Z,17.20
2023-05-14T15:05:20.558Z,17.50
2023-05-14T15:07:47.737Z,17.60
2023-05-14T15:10:14.774Z,17.70
2023-05-14T15:12:41.690Z,17.90
2023-05-14T15:15:09.703Z,17.90
2023-05-14T15:17:36.534Z,18.20
2023-05-14T15:20:03.997Z,18.70
2023-05-14T15:22:31.287Z,19.50
2023-05-14T15:25:00.649Z,20.40
2023-05-14T15:27:31.330Z,21.10
2023-05-14T15:30:20.603Z,23.20
2023-05-14T15:33:21.804Z,22.10
2023-05-14T15:35:51.593Z,22.60
2023-05-14T15:38:19.108Z,23.00
2023-05-14T15:44:02.694Z,23.20
2023-05-14T15:46:30.382Z,23.20
2023-05-14T15:48:57.836Z,23.20
2023-05-14T15:51:24.815Z,23.30
2023-05-14T15:53:53.619Z,23.30
2023-05-14T15:56:21.732Z,22.90
2023-05-14T15:58:49.080Z,22.30
2023-05-14T16:01:16.112Z,22.20
2023-05-14T16:03:43.145Z,22.20
2023-05-14T16:06:11.237Z,22.00
2023-05-14T16:08:38.576Z,21.40
2023-05-14T16:11:06.276Z,20.80
2023-05-14T16:13:33.514Z,20.40
2023-05-14T16:16:01.260Z,19.90
2023-05-14T16:18:28.207Z,19.40
2023-05-14T16:20:55.357Z,19.60
2023-05-14T16:23:22.282Z,18.70
2023-05-14T16:25:49.174Z,18.50
2023-05-14T16:28:16.062Z,18.30
2023-05-14T16:30:42.999Z,18.20
2023-05-14T16:33:10.006Z,19.30
2023-05-14T16:35:36.884Z,18.00
2023-05-14T16:38:04.082Z,17.80
2023-05-14T16:40:31.046Z,17.70
2023-05-14T16:42:58.183Z,18.90
2023-05-14T16:45:25.209Z,17.50
2023-05-14T16:47:52.320Z,17.40
2023-05-14T16:50:19.402Z,17.30
2023-05-14T16:52:46.343Z,17.10
2023-05-14T16:55:16.688Z,17.30
2023-05-14T16:57:43.823Z,17.40
2023-05-14T17:00:11.840Z,17.40
2023-05-14T17:02:39.013Z,17.20
2023-05-14T17:05:07.113Z,17.00
2023-05-14T17:07:33.984Z,16.80
2023-05-14T17:10:01.030Z,18.10
2023-05-14T17:12:28.061Z,16.40
2023-05-14T17:14:55.089Z,16.20
2023-05-14T17:17:22.054Z,16.10
2023-05-14T17:19:48.972Z,16.90
2023-05-14T17:22:15.913Z,15.90
2023-05-14T17:24:42.938Z,16.60
2023-05-14T17:27:09.837Z,15.70
2023-05-14T17:29:36.795Z,15.60
2023-05-14T17:32:03.894Z,15.70
2023-05-14T17:34:30.929Z,15.40
2023-05-14T17:36:57.973Z,15.40
2023-05-14T17:39:24.800Z,15.30
2023-05-14T17:41:51.735Z,15.30
2023-05-14T17:44:18.630Z,15.40
2023-05-14T17:46:45.950Z,15.40
2023-05-14T17:49:21.275Z,15.60
2023-05-14T17:51:51.364Z,15.40
2023-05-14T17:54:18.232Z,15.90
2023-05-14T17:56:45.211Z,15.30
2023-05-14T17:59:12.885Z,16.70
2023-05-14T18:01:39.797Z,15.20
2023-05-14T18:04:06.955Z,17.30
2023-05-14T18:06:34.030Z,15.80
2023-05-14T18:09:00.958Z,16.60
2023-05-14T18:11:33.667Z,16.60
2023-05-14T18:14:01.132Z,16.60
2023-05-14T18:16:28.241Z,15.80
2023-05-14T18:18:57.854Z,15.90
2023-05-14T18:21:24.783Z,14.80
2023-05-14T18:23:51.666Z,14.80
2023-05-14T18:26:18.517Z,16.50
2023-05-14T18:28:45.416Z,15.60
2023-05-14T18:31:12.371Z,14.60
2023-05-14T18:33:39.316Z,14.60
2023-05-14T18:36:06.740Z,14.60
2023-05-14T18:38:33.695Z,14.60
2023-05-14T18:41:00.607Z,14.50
2023-05-14T18:43:27.611Z,15.20
2023-05-14T18:45:54.495Z,14.40
2023-05-14T18:48:21.659Z,14.90
2023-05-14T18:50:48.623Z,14.30
2023-05-14T18:53:16.101Z,14.30
2023-05-14T18:55:43.145Z,16.80
2023-05-14T18:58:10.799Z,14.10
2023-05-14T19:00:37.789Z,14.00
2023-05-14T19:03:04.708Z,15.20
2023-05-14T19:05:31.957Z,14.00
2023-05-14T19:07:58.895Z,13.70
2023-05-14T19:10:25.788Z,14.20
2023-05-14T19:12:53.144Z,15.00
2023-05-14T19:15:20.269Z,13.50
2023-05-14T19:17:47.221Z,15.70
2023-05-14T19:20:14.143Z,14.40
2023-05-14T19:22:41.038Z,14.00
2023-05-14T19:25:08.473Z,13.30
2023-05-14T19:27:36.806Z,13.10
2023-05-14T19:30:04.346Z,13.70
2023-05-14T19:32:31.206Z,13.50
2023-05-14T19:34:58.206Z,14.00
2023-05-14T19:37:25.131Z,13.00
2023-05-14T19:39:52.046Z,15.50
2023-05-14T19:42:18.996Z,13.40
2023-05-14T19:44:45.932Z,14.70
2023-05-14T19:47:12.929Z,12.80
2023-05-14T19:49:39.902Z,12.70
2023-05-14T19:52:06.829Z,13.70
2023-05-14T19:54:33.673Z,12.90
2023-05-14T19:57:00.667Z,13.30
2023-05-14T19:59:29.408Z,12.40
2023-05-14T20:01:56.365Z,13.80
2023-05-14T20:04:23.383Z,12.50
2023-05-14T20:06:50.250Z,12.70
2023-05-14T20:09:17.184Z,13.00
2023-05-14T20:11:44.060Z,13.90
2023-05-14T20:14:11.031Z,13.60
2023-05-14T20:16:37.945Z,12.60
2023-05-14T20:19:05.066Z,12.50
2023-05-14T20:21:32.026Z,12.30
2023-05-14T20:23:59.243Z,13.70
2023-05-14T20:26:26.198Z,13.90
2023-05-14T20:28:53.787Z,12.00
2023-05-14T20:31:21.551Z,12.20
2023-05-14T20:33:49.113Z,12.40
2023-05-14T20:36:16.176Z,11.90
2023-05-14T20:38:43.068Z,13.00
2023-05-14T20:41:10.815Z,12.90
2023-05-14T20:43:39.005Z,11.10
2023-05-14T20:46:07.284Z,13.10
2023-05-14T20:48:34.249Z,12.30
2023-05-14T20:51:02.442Z,13.30
2023-05-14T20:53:29.416Z,12.00
2023-05-14T20:55:56.346Z,11.70
2023-05-14T20:58:23.229Z,13.60
2023-05-14T21:00:50.235Z,11.70
2023-05-14T21:03:17.187Z,11.60
2023-05-14T21:05:44.237Z,11.60
2023-05-14T21:08:11.302Z,12.50
2023-05-14T21:10:38.198Z,14.00
2023-05-14T21:13:05.162Z,14.00
2023-05-14T21:15:32.756Z,11.50
2023-05-14T21:17:59.887Z,11.50
2023-05-14T21:20:26.998Z,13.80
2023-05-14T21:22:53.884Z,11.40
2023-05-14T21:25:20.871Z,14.10
2023-05-14T21:27:47.720Z,12.20
2023-05-14T21:30:15.907Z,13.70
2023-05-14T21:32:42.838Z,11.40
2023-05-14T21:35:09.939Z,12.10
2023-05-14T21:37:36.955Z,13.40
2023-05-14T21:40:03.948Z,11.50
2023-05-14T21:42:30.915Z,11.30
2023-05-14T21:44:57.808Z,11.00
2023-05-14T21:47:24.730Z,13.10
2023-05-14T21:49:51.720Z,13.20
2023-05-14T21:52:18.610Z,11.10
2023-05-14T21:54:45.537Z,13.20
2023-05-14T21:57:12.434Z,12.20
2023-05-14T21:59:39.296Z,12.40
2023-05-14T22:02:07.904Z,13.40
2023-05-14T22:04:35.353Z,12.40
2023-05-14T22:07:02.387Z,12.40
2023-05-14T22:09:30.385Z,12.40
2023-05-14T22:11:58.248Z,11.40
2023-05-14T22:14:26.692Z,8.80
2023-05-14T22:16:53.566Z,13.50
2023-05-14T22:19:20.443Z,12.70
2023-05-14T22:21:47.318Z,12.10
2023-05-14T22:24:14.175Z,11.70
2023-05-14T22:26:41.026Z,10.80
2023-05-14T22:29:08.002Z,13.40
2023-05-14T22:31:34.971Z,12.50
2023-05-14T22:34:01.880Z,12.10
2023-05-14T22:36:28.774Z,12.90
2023-05-14T22:38:55.700Z,11.80
2023-05-14T22:41:22.563Z,11.80
2023-05-14T22:43:49.515Z,12.40
2023-05-14T22:46:16.431Z,13.20
2023-05-14T22:48:43.388Z,13.30
2023-05-14T22:51:10.245Z,11.50
2023-05-14T22:53:37.149Z,12.20
2023-05-14T22:56:04.230Z,10.80
2023-05-14T22:58:31.144Z,10.80
2023-05-14T23:00:58.035Z,13.60
2023-05-14T23:03:24.865Z,11.40
2023-05-14T23:05:52.124Z,13.20
2023-05-14T23:08:19.077Z,13.00
2023-05-14T23:10:45.929Z,13.30
2023-05-14T23:13:12.821Z,12.20
2023-05-14T23:15:39.751Z,12.50
2023-05-14T23:18:07.756Z,10.90
2023-05-14T23:20:34.809Z,13.50
2023-05-14T23:23:01.729Z,10.90
2023-05-14T23:25:28.828Z,12.50
2023-05-14T23:27:55.669Z,12.90
2023-05-14T23:30:22.569Z,11.10
2023-05-14T23:32:49.599Z,10.70
2023-05-14T23:35:16.591Z,10.70
2023-05-14T23:37:47.178Z,11.50
2023-05-14T23:40:15.633Z,12.00
2023-05-14T23:42:42.885Z,10.60
2023-05-14T23:45:10.234Z,12.90
2023-05-14T23:47:37.124Z,10.60
2023-05-14T23:50:04.681Z,13.00
2023-05-14T23:52:31.585Z,10.50
2023-05-14T23:54:58.436Z,10.50
2023-05-14T23:57:26.003Z,12.80
2023-05-14T23:59:53.041Z,10.50
